createdAt,value
2018-07-12T00:01:31.314Z,31.5
2018-07-12T00:12:16.107Z,36.5
2018-07-12T00:22:30.234Z,27.9
2018-07-12T00:32:44.430Z,28.6
2018-07-12T00:42:58.651Z,29.2
2018-07-12T00:53:12.911Z,32.5
2018-07-12T01:03:27.087Z,27.4
2018-07-12T01:13:41.390Z,36.8
2018-07-12T01:23:55.620Z,33.4
2018-07-12T01:34:09.806Z,30.5
2018-07-12T01:44:24.009Z,30.0
2018-07-12T01:54:38.281Z,32.4
2018-07-12T02:04:52.388Z,30.3
2018-07-12T02:15:05.708Z,39.2
2018-07-12T02:25:50.504Z,34.7
2018-07-12T02:36:04.763Z,31.1
2018-07-12T02:46:18.848Z,30.6
2018-07-12T02:56:33.040Z,29.2
2018-07-12T03:06:47.196Z,29.8
2018-07-12T03:17:00.987Z,30.3
2018-07-12T03:27:15.610Z,37.3
2018-07-12T03:37:29.080Z,37.6
2018-07-12T03:47:43.270Z,30.0
2018-07-12T03:57:57.897Z,39.6
2018-07-12T04:08:11.764Z,36.7
2018-07-12T04:18:25.913Z,37.1
2018-07-12T04:28:40.188Z,30.8
2018-07-12T04:38:54.219Z,31.2
2018-07-12T04:49:09.674Z,30.4
2018-07-12T04:59:23.704Z,34.9
2018-07-12T05:09:37.838Z,32.0
2018-07-12T05:19:51.342Z,48.0
2018-07-12T05:30:06.225Z,34.7
2018-07-12T05:40:19.394Z,37.6
2018-07-12T05:50:32.699Z,35.2
2018-07-12T06:00:46.911Z,39.4
2018-07-12T06:11:31.494Z,42.5
2018-07-12T06:21:44.854Z,32.7
2018-07-12T06:31:58.092Z,44.0
2018-07-12T06:42:11.288Z,35.3
2018-07-12T06:52:24.498Z,38.1
2018-07-12T07:02:37.807Z,35.9
2018-07-12T07:12:51.454Z,39.0
2018-07-12T07:23:05.262Z,43.4
2018-07-12T07:33:18.908Z,39.5
2018-07-12T07:43:31.053Z,34.1
2018-07-12T07:53:45.214Z,35.3
2018-07-12T08:03:59.278Z,29.5
2018-07-12T08:14:13.981Z,27.7
2018-07-12T08:24:58.582Z,31.4
2018-07-12T08:35:12.805Z,30.4
2018-07-12T08:45:30.251Z,29.0
2018-07-12T08:55:43.897Z,34.9
2018-07-12T09:05:58.170Z,40.2
2018-07-12T09:16:12.370Z,32.3
2018-07-12T09:26:26.459Z,28.4
2018-07-12T09:36:40.068Z,31.5
2018-07-12T09:47:24.779Z,29.5
2018-07-12T09:57:35.920Z,31.5
2018-07-12T10:07:50.228Z,25.3
2018-07-12T10:18:34.983Z,26.4
2018-07-12T10:28:49.054Z,22.6
2018-07-12T10:39:02.454Z,28.5
2018-07-12T10:49:16.488Z,25.4
2018-07-12T10:59:29.922Z,20.7
2018-07-12T11:09:44.304Z,31.3
2018-07-12T11:20:00.518Z,22.3
2018-07-12T11:30:14.975Z,23.4
2018-07-12T11:40:26.852Z,23.7
2018-07-12T11:50:41.111Z,23.5
2018-07-12T12:00:55.590Z,21.3
2018-07-12T12:11:09.531Z,22.2
2018-07-12T12:21:54.329Z,21.1
2018-07-12T12:32:08.394Z,26.3
2018-07-12T12:42:22.603Z,21.6
2018-07-12T12:52:37.403Z,24.2
2018-07-12T13:02:51.032Z,20.8
2018-07-12T13:13:05.319Z,21.3
2018-07-12T13:23:19.717Z,22.0
2018-07-12T13:33:33.807Z,20.7
2018-07-12T13:43:48.018Z,21.5
2018-07-12T13:54:02.549Z,21.7
2018-07-12T14:04:16.548Z,21.1
2018-07-12T14:14:27.862Z,32.2
2018-07-12T14:24:42.019Z,31.1
2018-07-12T14:34:55.937Z,23.6
2018-07-12T14:45:09.362Z,22.8
2018-07-12T14:55:23.596Z,23.4
2018-07-12T15:06:08.610Z,27.5
2018-07-12T15:16:23.067Z,23.9
2018-07-12T15:26:36.877Z,27.7
2018-07-12T15:37:21.799Z,36.4
2018-07-12T15:58:31.259Z,23.8
2018-07-12T16:08:45.161Z,25.2
2018-07-12T16:19:29.774Z,23.5
2018-07-12T16:29:43.210Z,23.1
2018-07-12T16:39:55.323Z,23.2
2018-07-12T16:50:09.788Z,23.6
2018-07-12T17:00:23.853Z,24.8
2018-07-12T17:10:38.154Z,25.1
2018-07-12T17:20:52.257Z,26.5
2018-07-12T17:31:06.639Z,27.5
2018-07-12T17:41:20.598Z,25.4
2018-07-12T17:51:37.430Z,24.9
2018-07-12T18:01:51.014Z,29.0
2018-07-12T18:35:25.220Z,31.1
2018-07-12T18:45:41.358Z,25.4
2018-07-12T19:10:11.378Z,25.9
2018-07-12T19:42:42.652Z,28.4
2018-07-12T19:53:11.935Z,26.8
2018-07-12T20:17:24.541Z,26.2
2018-07-12T20:27:38.853Z,28.0
2018-07-12T20:37:52.982Z,31.2
2018-07-12T20:48:07.373Z,28.4
2018-07-12T20:58:51.952Z,27.8
2018-07-12T21:09:06.126Z,34.7
2018-07-12T21:19:51.701Z,27.3
2018-07-12T21:30:05.985Z,28.8
2018-07-12T21:40:20.258Z,31.9
2018-07-12T21:50:31.708Z,27.1
2018-07-12T22:00:42.972Z,26.9
2018-07-12T22:10:56.951Z,34.7
2018-07-12T22:21:10.461Z,33.4
2018-07-12T22:31:56.168Z,27.8
2018-07-12T22:42:10.312Z,27.3
2018-07-12T22:52:24.508Z,27.6
2018-07-12T23:02:38.768Z,28.4
2018-07-12T23:12:50.112Z,26.8
2018-07-12T23:23:34.982Z,31.1
2018-07-12T23:33:50.188Z,33.2
2018-07-12T23:44:04.283Z,25.9
2018-07-12T23:54:18.466Z,35.3
